createdAt,value
2022-12-11T09:07:04.107Z,86.31
2022-12-11T09:09:32.882Z,86.50
2022-12-11T09:12:01.906Z,86.56
2022-12-11T09:14:31.356Z,86.84
2022-12-11T09:17:00.590Z,86.16
2022-12-11T09:19:32.383Z,85.62
2022-12-11T09:22:02.109Z,85.38
2022-12-11T09:24:34.541Z,85.27
2022-12-11T09:27:05.382Z,85.08
2022-12-11T09:29:34.361Z,85.00
2022-12-11T09:32:03.952Z,84.76
2022-12-11T09:34:33.063Z,84.29
2022-12-11T09:37:02.703Z,83.36
2022-12-11T09:39:31.462Z,83.40
2022-12-11T09:42:04.990Z,83.67
2022-12-11T09:44:48.688Z,83.69
2022-12-11T09:47:46.261Z,83.55
2022-12-11T09:50:21.662Z,83.46
2022-12-11T09:53:22.801Z,83.44
2022-12-11T09:56:30.005Z,83.29
2022-12-11T09:59:30.683Z,83.17
2022-12-11T10:02:35.608Z,82.58
2022-12-11T10:05:13.707Z,82.71
2022-12-11T10:07:52.610Z,83.07
2022-12-11T10:10:55.301Z,83.22
2022-12-11T10:13:56.122Z,82.66
2022-12-11T10:17:11.792Z,82.48
2022-12-11T10:19:43.541Z,82.03
2022-12-11T10:22:30.334Z,82.37
2022-12-11T10:25:17.975Z,82.60
2022-12-11T10:27:46.937Z,82.23
2022-12-11T10:30:22.755Z,82.11
2022-12-11T10:33:22.526Z,82.14
2022-12-11T10:35:56.132Z,81.94
2022-12-11T10:38:42.840Z,82.32
2022-12-11T10:41:29.052Z,82.12
2022-12-11T10:43:57.870Z,80.60
2022-12-11T10:46:32.609Z,80.88
2022-12-11T10:49:02.340Z,81.18
2022-12-11T10:51:31.035Z,81.01
2022-12-11T10:54:29.511Z,80.96
2022-12-11T10:57:00.810Z,81.50
2022-12-11T10:59:41.356Z,81.11
2022-12-11T11:02:31.212Z,80.80
2022-12-11T11:05:20.155Z,80.81
2022-12-11T11:07:49.003Z,80.36
2022-12-11T11:10:18.837Z,79.87
2022-12-11T11:12:50.818Z,80.05
2022-12-11T11:15:27.094Z,80.24
2022-12-11T11:18:02.116Z,79.91
2022-12-11T11:20:34.534Z,79.77
2022-12-11T11:23:14.317Z,79.67
2022-12-11T11:25:52.963Z,79.31
2022-12-11T11:28:31.084Z,79.07
2022-12-11T11:31:14.881Z,78.83
2022-12-11T11:34:06.166Z,79.36
2022-12-11T11:36:38.344Z,79.33
2022-12-11T11:39:39.018Z,79.40
2022-12-11T11:42:30.239Z,79.32
2022-12-11T11:45:11.305Z,79.14
2022-12-11T11:47:57.319Z,78.84
2022-12-11T11:50:34.690Z,78.85
2022-12-11T11:53:12.018Z,78.82
2022-12-11T11:56:12.909Z,79.12
2022-12-11T11:59:01.309Z,79.38
2022-12-11T12:01:31.148Z,79.52
2022-12-11T12:04:03.306Z,79.59
2022-12-11T12:06:52.868Z,79.85
2022-12-11T12:10:03.598Z,79.89
2022-12-11T12:13:02.285Z,79.89
2022-12-11T12:15:58.957Z,79.95
2022-12-11T12:19:08.689Z,80.32
2022-12-11T12:21:40.114Z,80.44
2022-12-11T12:24:48.992Z,80.77
2022-12-11T12:27:59.395Z,81.48
2022-12-11T12:30:56.963Z,81.93
2022-12-11T12:33:44.192Z,80.52
2022-12-11T12:36:20.001Z,80.19
2022-12-11T12:38:59.567Z,80.06
2022-12-11T12:42:08.560Z,79.74
2022-12-11T12:45:10.632Z,79.37
2022-12-11T12:47:42.405Z,78.90
2022-12-11T12:50:17.415Z,78.02
2022-12-11T12:52:47.963Z,77.21
2022-12-11T12:55:29.919Z,77.33
2022-12-11T12:58:24.769Z,77.50
2022-12-11T13:00:54.575Z,77.67
2022-12-11T13:03:33.079Z,77.75
2022-12-11T13:06:08.023Z,77.66
2022-12-11T13:08:52.136Z,78.11
2022-12-11T13:11:37.099Z,78.86
2022-12-11T13:14:15.740Z,78.87
2022-12-11T13:16:51.646Z,79.58
2022-12-11T13:19:23.356Z,79.93
2022-12-11T13:22:00.997Z,80.20
2022-12-11T13:24:33.826Z,80.65
2022-12-11T13:27:25.037Z,81.38
2022-12-11T13:30:24.364Z,82.16
2022-12-11T13:33:19.432Z,83.06
2022-12-11T13:35:48.427Z,83.30
2022-12-11T13:38:21.224Z,83.72
2022-12-11T13:40:56.443Z,83.62
2022-12-11T13:43:31.128Z,83.84
2022-12-11T13:46:07.322Z,83.72
2022-12-11T13:48:46.320Z,83.66
2022-12-11T13:51:26.554Z,82.92
2022-12-11T13:54:18.816Z,82.51
2022-12-11T13:57:31.233Z,81.20
2022-12-11T14:00:00.125Z,80.21
2022-12-11T14:02:36.174Z,80.12
2022-12-11T14:05:13.026Z,79.91
2022-12-11T14:07:49.451Z,80.14
2022-12-11T14:10:28.869Z,79.73
2022-12-11T14:13:02.987Z,80.06
2022-12-11T14:15:35.664Z,79.95
2022-12-11T14:18:06.363Z,79.84
2022-12-11T14:20:35.530Z,80.00
2022-12-11T14:23:27.288Z,79.93
2022-12-11T14:26:19.366Z,79.90
2022-12-11T14:28:48.748Z,80.39
2022-12-11T14:31:24.251Z,80.16
2022-12-11T14:34:03.186Z,79.81
2022-12-11T14:36:35.707Z,79.27
2022-12-11T14:39:41.944Z,79.55
2022-12-11T14:42:18.929Z,79.21
2022-12-11T14:45:03.744Z,79.55
2022-12-11T14:47:41.606Z,79.97
2022-12-11T14:50:26.952Z,80.21
2022-12-11T14:53:02.655Z,80.60
2022-12-11T14:55:36.446Z,80.61
2022-12-11T14:58:30.302Z,80.51
2022-12-11T15:01:04.829Z,80.75
2022-12-11T15:03:39.966Z,80.91
2022-12-11T15:06:35.987Z,81.25
2022-12-11T15:09:42.846Z,81.19
2022-12-11T15:12:19.773Z,80.58
2022-12-11T15:15:15.545Z,80.87
2022-12-11T15:17:49.677Z,80.94
2022-12-11T15:20:31.927Z,80.08
2022-12-11T15:23:02.591Z,79.89
2022-12-11T15:25:31.526Z,79.82
2022-12-11T15:28:02.173Z,79.59
2022-12-11T15:30:35.279Z,79.40
2022-12-11T15:33:09.992Z,78.83
2022-12-11T15:35:51.630Z,79.10
2022-12-11T15:38:42.493Z,79.21
2022-12-11T15:41:17.890Z,79.46
2022-12-11T15:43:47.726Z,79.76
2022-12-11T15:46:16.524Z,79.85
2022-12-11T15:48:45.126Z,79.93
2022-12-11T15:51:13.948Z,80.24
2022-12-11T15:53:42.627Z,80.44
2022-12-11T15:56:17.035Z,80.65
2022-12-11T15:58:49.046Z,80.61
2022-12-11T16:01:18.116Z,81.06
2022-12-11T16:03:46.947Z,81.32
2022-12-11T16:06:15.727Z,81.36
2022-12-11T16:08:44.528Z,81.65
2022-12-11T16:11:14.627Z,80.55
2022-12-11T16:13:43.388Z,79.96
2022-12-11T16:16:12.268Z,79.73
2022-12-11T16:18:41.027Z,79.75
2022-12-11T16:21:09.826Z,80.26
2022-12-11T16:23:38.608Z,80.00
2022-12-11T16:26:10.048Z,79.46
2022-12-11T16:28:38.841Z,79.84
2022-12-11T16:31:13.321Z,80.28
2022-12-11T16:33:42.486Z,80.02
2022-12-11T16:36:19.831Z,79.80
2022-12-11T16:38:53.909Z,79.55
2022-12-11T16:41:23.933Z,79.56
2022-12-11T16:43:54.348Z,79.74
2022-12-11T16:46:24.596Z,79.81
2022-12-11T16:48:53.273Z,79.74
2022-12-11T16:51:22.307Z,79.97
2022-12-11T16:53:51.006Z,80.18
2022-12-11T16:56:19.888Z,80.37
2022-12-11T16:58:48.847Z,80.51
2022-12-11T17:01:17.668Z,80.71
2022-12-11T17:03:46.465Z,80.83
2022-12-11T17:06:18.058Z,80.74
2022-12-11T17:08:47.920Z,80.96
2022-12-11T17:11:20.418Z,80.93
2022-12-11T17:13:55.494Z,81.07
2022-12-11T17:16:26.815Z,81.23
2022-12-11T17:18:57.735Z,81.44
2022-12-11T17:21:26.677Z,81.52
2022-12-11T17:23:55.457Z,81.57
2022-12-11T17:26:25.555Z,81.63
2022-12-11T17:28:54.436Z,81.97
2022-12-11T17:31:23.513Z,82.05
2022-12-11T17:33:54.368Z,82.23
2022-12-11T17:36:23.420Z,82.28
2022-12-11T17:38:55.463Z,82.30
2022-12-11T17:41:24.832Z,82.54
2022-12-11T17:43:54.589Z,82.82
2022-12-11T17:46:23.958Z,82.91
2022-12-11T17:48:52.831Z,83.03
2022-12-11T17:51:24.728Z,83.16
2022-12-11T17:53:56.332Z,83.48
2022-12-11T17:56:26.338Z,83.59
2022-12-11T17:58:54.989Z,84.02
2022-12-11T18:01:23.801Z,84.30
2022-12-11T18:03:52.850Z,84.57
2022-12-11T18:06:23.371Z,84.64
2022-12-11T18:08:52.114Z,84.70
2022-12-11T18:11:24.352Z,84.64
2022-12-11T18:13:54.177Z,84.66
2022-12-11T18:16:30.637Z,84.71
2022-12-11T18:18:59.611Z,84.84
2022-12-11T18:21:33.316Z,84.90
2022-12-11T18:24:03.091Z,85.26
2022-12-11T18:26:31.825Z,85.41
2022-12-11T18:29:00.653Z,85.34
2022-12-11T18:31:29.342Z,85.30
2022-12-11T18:33:58.436Z,85.31
2022-12-11T18:36:27.821Z,85.46
2022-12-11T18:38:56.596Z,85.68
2022-12-11T18:41:25.671Z,85.77
2022-12-11T18:43:54.996Z,85.80
2022-12-11T18:46:23.940Z,85.83
2022-12-11T18:48:52.813Z,85.91
2022-12-11T18:51:24.310Z,86.03
2022-12-11T18:53:54.417Z,86.16
2022-12-11T18:56:23.931Z,86.17
2022-12-11T18:58:52.838Z,86.14
2022-12-11T19:01:26.111Z,86.15
2022-12-11T19:04:03.516Z,86.25
2022-12-11T19:06:35.904Z,86.34
2022-12-11T19:09:09.313Z,86.44
2022-12-11T19:11:43.853Z,86.67
2022-12-11T19:14:12.813Z,86.63
2022-12-11T19:16:47.434Z,86.61
2022-12-11T19:19:22.377Z,86.57
2022-12-11T19:21:51.073Z,86.64
2022-12-11T19:24:23.931Z,86.68
2022-12-11T19:26:52.974Z,86.71
2022-12-11T19:29:26.912Z,86.78
2022-12-11T19:31:57.030Z,86.82
2022-12-11T19:34:26.545Z,86.84
2022-12-11T19:36:55.455Z,86.84
2022-12-11T19:39:24.431Z,86.82
2022-12-11T19:41:53.335Z,86.91
2022-12-11T19:44:22.342Z,86.97
2022-12-11T19:46:51.078Z,86.98
2022-12-11T19:49:19.775Z,86.99
2022-12-11T19:51:48.464Z,86.86
2022-12-11T19:54:18.354Z,86.84
2022-12-11T19:56:47.141Z,86.90
2022-12-11T19:59:18.632Z,87.03
2022-12-11T20:01:50.675Z,87.00
2022-12-11T20:04:20.394Z,86.92
2022-12-11T20:06:49.213Z,86.90
2022-12-11T20:09:18.496Z,86.94
2022-12-11T20:11:48.192Z,86.91
2022-12-11T20:14:27.615Z,86.87
2022-12-11T20:17:13.924Z,86.85
2022-12-11T20:19:43.532Z,86.88
2022-12-11T20:22:12.599Z,86.84
2022-12-11T20:24:41.695Z,86.86
2022-12-11T20:27:10.672Z,86.94
2022-12-11T20:29:39.560Z,87.00
2022-12-11T20:32:08.318Z,86.96
2022-12-11T20:34:38.113Z,86.91
2022-12-11T20:37:08.178Z,86.98
2022-12-11T20:39:37.616Z,87.04
2022-12-11T20:42:06.351Z,87.11
2022-12-11T20:44:35.274Z,87.19
2022-12-11T20:47:04.205Z,87.19
2022-12-11T20:49:33.377Z,87.19
2022-12-11T20:52:02.199Z,87.18
2022-12-11T20:54:31.171Z,87.10
2022-12-11T20:57:00.159Z,87.11
2022-12-11T20:59:29.120Z,87.17
2022-12-11T21:01:58.303Z,87.26
2022-12-11T21:04:27.772Z,87.22
2022-12-11T21:07:03.894Z,87.20
2022-12-11T21:09:32.571Z,87.25
2022-12-11T21:12:01.997Z,87.26
2022-12-11T21:14:31.611Z,87.32
2022-12-11T21:17:00.698Z,87.29
2022-12-11T21:19:29.434Z,87.27
2022-12-11T21:21:58.651Z,87.27
2022-12-11T21:24:30.414Z,87.28
2022-12-11T21:26:59.432Z,87.34
2022-12-11T21:29:29.772Z,87.34
2022-12-11T21:31:58.809Z,87.31
2022-12-11T21:34:28.093Z,87.31
2022-12-11T21:36:57.409Z,87.31
2022-12-11T21:39:28.853Z,87.41
2022-12-11T21:41:58.552Z,87.50
2022-12-11T21:47:17.074Z,87.56
2022-12-11T21:49:45.952Z,87.63
2022-12-11T21:52:15.184Z,87.69
2022-12-11T21:54:45.671Z,87.78
2022-12-11T21:57:14.332Z,87.82
2022-12-11T21:59:43.053Z,87.87
2022-12-11T22:02:12.487Z,87.87
2022-12-11T22:04:42.343Z,87.96
2022-12-11T22:07:11.074Z,87.95
2022-12-11T22:09:39.844Z,87.97
2022-12-11T22:12:15.253Z,87.98
2022-12-11T22:14:44.051Z,88.00
2022-12-11T22:17:12.711Z,88.05
2022-12-11T22:19:41.392Z,88.12
2022-12-11T22:22:10.572Z,88.12
2022-12-11T22:24:40.071Z,88.11
2022-12-11T22:27:08.891Z,88.15
2022-12-11T22:29:37.633Z,88.13
2022-12-11T22:32:06.490Z,88.17
2022-12-11T22:34:35.472Z,88.21
2022-12-11T22:37:04.237Z,88.43
2022-12-11T22:39:32.874Z,88.80
2022-12-11T22:42:01.531Z,89.07
2022-12-11T22:44:30.196Z,89.14
2022-12-11T22:46:58.811Z,89.33
2022-12-11T22:49:27.394Z,89.45
2022-12-11T22:51:57.631Z,89.44
2022-12-11T22:54:26.680Z,89.39
2022-12-11T22:56:55.451Z,89.47
